KSNH

Savannah-Hardin County Airport

Savannah, Tennessee, USA
METAR KSNH 230455Z AUTO 00000KT 10SM CLR 06/06 A3023 RMK A01
Observed Flight Rules
Oct-23 @ 04:55 UTC (21 minutes ago) Visual Flight Rules
Visibility Clouds
10 miles
  • Clear skies
Temperatures Readings
Current 6°C / 43°F
Dewpoint 6°C / 43°F
Humidity 100%
Altimeter 30.23" Hg
Pressure 1024 hPa
Elevation 144
METAR KSNH 230455Z AUTO 00000KT 10SM CLR 06/06 A3023 RMK A01
Observed Flight Rules
Oct-23 @ 04:55 UTC
(21 minutes ago)
VFR
Clouds
  • Clear skies
Temperature Dewpoint
6°C / 43°F 6°C / 43°F
Humidity Altimeter Pressure
100% 30.23" Hg 1024 hPa